createdAt,value
2022-11-13T00:01:24.097Z,223.93
2022-11-13T00:04:12.798Z,194.10
2022-11-13T00:07:00.009Z,155.57
2022-11-13T00:09:47.125Z,139.05
2022-11-13T00:12:39.199Z,118.72
2022-11-13T00:15:26.137Z,102.70
2022-11-13T00:18:13.549Z,109.60
2022-11-13T00:21:09.285Z,103.40
2022-11-13T00:24:03.203Z,121.22
2022-11-13T00:26:50.059Z,122.03
2022-11-13T00:29:38.706Z,118.63
2022-11-13T00:32:26.314Z,115.45
2022-11-13T00:35:13.266Z,110.53
2022-11-13T00:38:00.837Z,119.20
2022-11-13T00:40:47.648Z,100.38
2022-11-13T00:43:34.544Z,61.58
2022-11-13T00:46:22.910Z,50.55
2022-11-13T00:49:09.685Z,42.80
2022-11-13T00:51:56.685Z,42.22
2022-11-13T00:54:43.533Z,42.60
2022-11-13T00:57:30.657Z,41.22
2022-11-13T01:00:18.534Z,40.47
2022-11-13T01:03:07.246Z,41.10
2022-11-13T01:05:53.918Z,39.58
2022-11-13T01:08:41.302Z,37.58
2022-11-13T01:11:31.450Z,40.08
2022-11-13T01:14:18.347Z,39.15
2022-11-13T01:17:05.700Z,38.90
2022-11-13T01:19:54.087Z,36.60
2022-11-13T01:22:41.051Z,42.38
2022-11-13T01:25:29.075Z,36.42
2022-11-13T01:28:15.850Z,38.03
2022-11-13T01:31:06.270Z,35.92
2022-11-13T01:33:54.333Z,34.78
2022-11-13T01:36:42.685Z,36.92
2022-11-13T01:39:29.437Z,35.42
2022-11-13T01:42:16.532Z,35.72
2022-11-13T01:45:03.779Z,35.10
2022-11-13T01:47:50.734Z,34.25
2022-11-13T01:50:37.887Z,34.28
2022-11-13T01:53:27.004Z,34.88
2022-11-13T01:56:15.665Z,34.65
2022-11-13T01:59:09.436Z,37.20
2022-11-13T02:01:57.243Z,36.47
2022-11-13T02:04:44.564Z,33.05
2022-11-13T02:07:31.623Z,33.00
2022-11-13T02:10:20.340Z,31.10
2022-11-13T02:13:07.316Z,32.03
2022-11-13T02:15:55.258Z,31.17
2022-11-13T02:18:43.445Z,32.97
2022-11-13T02:21:39.216Z,32.28
2022-11-13T02:24:37.862Z,31.33
2022-11-13T02:27:32.996Z,31.65
2022-11-13T02:30:27.245Z,30.67
2022-11-13T02:33:26.689Z,32.53
2022-11-13T02:36:14.267Z,30.27
2022-11-13T02:39:05.448Z,30.48
2022-11-13T02:41:54.201Z,29.75
2022-11-13T02:44:43.704Z,31.33
2022-11-13T02:47:30.866Z,28.35
2022-11-13T02:50:19.543Z,28.85
2022-11-13T02:53:10.297Z,30.23
2022-11-13T02:55:57.460Z,28.50
2022-11-13T02:58:46.101Z,29.45
2022-11-13T03:01:33.093Z,28.38
2022-11-13T03:04:19.963Z,27.80
2022-11-13T03:07:07.591Z,27.83
2022-11-13T03:09:54.567Z,29.77
2022-11-13T03:12:41.795Z,27.85
2022-11-13T03:15:30.170Z,27.58
2022-11-13T03:18:17.206Z,29.00
2022-11-13T03:21:09.861Z,27.02
2022-11-13T03:23:56.633Z,26.05
2022-11-13T03:26:43.894Z,27.92
2022-11-13T03:29:30.888Z,26.30
2022-11-13T03:32:19.159Z,27.40
2022-11-13T03:35:07.381Z,26.08
2022-11-13T03:37:54.376Z,26.48
2022-11-13T03:40:42.895Z,28.60
2022-11-13T03:43:29.612Z,25.83
2022-11-13T03:46:17.038Z,25.23
2022-11-13T03:49:05.486Z,28.00
2022-11-13T03:51:54.844Z,24.23
2022-11-13T03:54:41.816Z,24.20
2022-11-13T03:57:28.982Z,26.10
2022-11-13T04:00:17.773Z,25.90
2022-11-13T04:03:04.690Z,24.65
2022-11-13T04:05:53.233Z,24.50
2022-11-13T04:08:41.293Z,25.20
2022-11-13T04:11:28.534Z,24.50
2022-11-13T04:14:15.604Z,24.00
2022-11-13T04:17:02.574Z,24.00
2022-11-13T04:19:49.819Z,22.13
2022-11-13T04:22:38.344Z,24.15
2022-11-13T04:25:25.755Z,24.10
2022-11-13T04:28:12.638Z,22.45
2022-11-13T04:30:59.411Z,22.55
2022-11-13T04:33:46.390Z,22.77
2022-11-13T04:36:33.426Z,22.23
2022-11-13T04:39:21.984Z,23.10
2022-11-13T04:42:28.708Z,22.23
2022-11-13T04:45:16.284Z,23.15
2022-11-13T04:48:03.075Z,22.85
2022-11-13T04:50:49.943Z,22.65
2022-11-13T04:53:36.957Z,23.38
2022-11-13T04:56:25.243Z,20.63
2022-11-13T04:59:12.098Z,19.88
2022-11-13T05:01:59.625Z,20.40
2022-11-13T05:04:46.709Z,21.58
2022-11-13T05:07:33.600Z,22.17
2022-11-13T05:10:20.728Z,19.65
2022-11-13T05:13:09.305Z,22.15
2022-11-13T05:16:02.528Z,21.65
2022-11-13T05:18:49.622Z,19.77
2022-11-13T05:21:37.792Z,21.90
2022-11-13T05:24:24.908Z,20.27
2022-11-13T05:27:17.029Z,18.45
2022-11-13T05:30:07.291Z,21.10
2022-11-13T05:32:54.307Z,19.08
2022-11-13T05:35:41.028Z,17.58
2022-11-13T05:38:29.174Z,18.00
2022-11-13T05:41:19.449Z,20.35
2022-11-13T05:44:06.410Z,20.90
2022-11-13T05:46:54.704Z,19.15
2022-11-13T05:49:41.747Z,16.88
2022-11-13T05:52:28.905Z,18.17
2022-11-13T05:55:15.872Z,18.20
2022-11-13T05:58:02.713Z,19.77
2022-11-13T06:00:50.116Z,20.25
2022-11-13T06:03:39.277Z,19.35
2022-11-13T06:06:28.182Z,18.95
2022-11-13T06:09:17.521Z,19.42
2022-11-13T06:12:04.423Z,19.38
2022-11-13T06:14:51.324Z,18.38
2022-11-13T06:17:38.510Z,18.38
2022-11-13T06:20:27.140Z,18.10
2022-11-13T06:23:14.036Z,18.13
2022-11-13T06:26:05.422Z,15.88
2022-11-13T06:28:52.758Z,18.13
2022-11-13T06:31:39.875Z,17.73
2022-11-13T06:34:27.012Z,17.08
2022-11-13T06:37:15.453Z,14.57
2022-11-13T06:40:02.300Z,17.40
2022-11-13T06:42:49.602Z,16.67
2022-11-13T06:45:37.106Z,16.60
2022-11-13T06:48:24.650Z,17.50
2022-11-13T06:51:15.884Z,17.30
2022-11-13T06:54:04.573Z,17.55
2022-11-13T06:56:51.646Z,16.58
2022-11-13T06:59:39.633Z,17.63
2022-11-13T07:02:26.760Z,17.08
2022-11-13T07:05:13.904Z,16.92
2022-11-13T07:08:00.990Z,13.82
2022-11-13T07:10:56.352Z,17.77
2022-11-13T07:13:44.735Z,15.70
2022-11-13T07:16:50.131Z,15.55
2022-11-13T07:19:38.902Z,15.77
2022-11-13T07:22:25.941Z,15.07
2022-11-13T07:25:14.023Z,14.88
2022-11-13T07:28:03.093Z,14.98
2022-11-13T07:30:50.209Z,14.52
2022-11-13T07:33:37.484Z,15.88
2022-11-13T07:36:24.605Z,15.25
2022-11-13T07:39:11.806Z,16.00
2022-11-13T07:41:58.971Z,15.25
2022-11-13T07:44:54.439Z,14.00
2022-11-13T07:47:42.692Z,18.33
2022-11-13T07:50:32.926Z,12.20
2022-11-13T07:53:21.573Z,14.32
2022-11-13T07:56:09.550Z,12.27
2022-11-13T07:58:56.382Z,13.88
2022-11-13T08:01:44.853Z,12.38
2022-11-13T08:04:32.274Z,12.70
2022-11-13T08:07:19.079Z,11.93
2022-11-13T08:10:07.324Z,12.15
2022-11-13T08:13:01.403Z,11.25
2022-11-13T08:15:48.523Z,12.88
2022-11-13T08:18:37.194Z,11.10
2022-11-13T08:21:24.923Z,12.38
2022-11-13T08:24:12.004Z,11.13
2022-11-13T08:26:58.922Z,12.07
2022-11-13T08:29:46.231Z,14.02
2022-11-13T08:32:33.356Z,13.23
2022-11-13T08:35:26.591Z,14.25
2022-11-13T08:38:16.344Z,11.57
2022-11-13T08:41:09.417Z,11.95
2022-11-13T08:43:57.252Z,13.00
2022-11-13T08:46:43.931Z,12.15
2022-11-13T08:49:31.219Z,12.93
2022-11-13T08:52:19.715Z,10.88
2022-11-13T08:55:08.555Z,12.57
2022-11-13T08:57:59.027Z,10.75
2022-11-13T09:00:46.344Z,11.13
2022-11-13T09:03:36.111Z,11.02
2022-11-13T09:06:23.066Z,12.27
2022-11-13T09:09:11.803Z,14.10
2022-11-13T09:11:58.876Z,11.07
2022-11-13T09:14:45.974Z,9.57
2022-11-13T09:17:33.025Z,10.85
2022-11-13T09:20:22.711Z,10.23
2022-11-13T09:23:10.663Z,9.20
2022-11-13T09:26:01.689Z,10.25
2022-11-13T09:28:48.835Z,10.57
2022-11-13T09:31:35.648Z,9.55
2022-11-13T09:34:23.306Z,9.60
2022-11-13T09:37:10.400Z,10.27
2022-11-13T09:39:57.190Z,9.82
2022-11-13T09:42:46.913Z,8.75
2022-11-13T09:45:34.689Z,10.30
2022-11-13T09:48:33.615Z,11.70
2022-11-13T09:51:25.748Z,9.77
2022-11-13T09:54:17.128Z,10.15
2022-11-13T09:57:14.404Z,10.77
2022-11-13T10:00:06.936Z,10.98
2022-11-13T10:03:54.673Z,10.38
2022-11-13T10:06:55.848Z,10.05
2022-11-13T10:10:00.446Z,9.75
2022-11-13T10:12:50.916Z,10.13
2022-11-13T10:15:41.487Z,9.98
2022-11-13T10:18:34.579Z,10.13
2022-11-13T10:21:34.471Z,9.55
2022-11-13T10:24:29.623Z,12.45
2022-11-13T10:27:17.285Z,12.57
2022-11-13T10:30:04.778Z,11.73
2022-11-13T10:32:53.400Z,12.18
2022-11-13T10:35:58.183Z,11.50
2022-11-13T10:38:50.270Z,10.98
2022-11-13T10:41:48.907Z,10.77
2022-11-13T10:44:36.859Z,11.00
2022-11-13T10:47:49.431Z,12.20
2022-11-13T10:50:35.635Z,11.77
2022-11-13T10:53:23.308Z,11.38
2022-11-13T10:56:22.813Z,10.05
2022-11-13T10:59:15.053Z,10.10
2022-11-13T11:02:17.763Z,10.63
2022-11-13T11:05:08.172Z,8.80
2022-11-13T11:07:58.213Z,10.40
2022-11-13T11:11:15.985Z,9.20
2022-11-13T11:14:18.255Z,10.30
2022-11-13T11:17:07.190Z,8.93
2022-11-13T11:20:01.881Z,9.25
2022-11-13T11:22:54.552Z,9.18
2022-11-13T11:25:49.866Z,9.13
2022-11-13T11:28:44.307Z,10.30
2022-11-13T11:31:39.556Z,9.32
2022-11-13T11:34:33.241Z,11.50
2022-11-13T11:37:22.561Z,9.02
2022-11-13T11:40:20.698Z,8.45
2022-11-13T11:43:19.878Z,9.30
2022-11-13T11:46:11.612Z,8.77
2022-11-13T11:49:02.290Z,7.68
2022-11-13T11:52:04.743Z,8.90
2022-11-13T11:55:00.675Z,7.38
2022-11-13T11:57:59.106Z,8.18
2022-11-13T12:00:53.618Z,7.63
2022-11-13T12:04:08.029Z,7.50
2022-11-13T12:07:11.651Z,7.25
2022-11-13T12:10:10.986Z,7.10
2022-11-13T12:13:27.605Z,7.97
2022-11-13T12:16:26.607Z,7.43
2022-11-13T12:19:24.363Z,7.30
2022-11-13T12:22:21.510Z,11.65
2022-11-13T12:25:20.277Z,9.48
2022-11-13T12:28:15.807Z,15.50
2022-11-13T12:31:15.508Z,10.80
2022-11-13T12:34:12.906Z,13.13
2022-11-13T12:41:57.289Z,8.23
2022-11-13T12:44:55.901Z,10.07
2022-11-13T12:47:43.341Z,7.28
2022-11-13T12:50:32.718Z,9.75
2022-11-13T12:53:28.829Z,9.13
2022-11-13T12:56:32.048Z,7.53
2022-11-13T12:59:35.956Z,8.15
2022-11-13T13:02:41.604Z,8.70
2022-11-13T13:05:58.490Z,7.28
2022-11-13T13:09:26.156Z,8.45
2022-11-13T13:12:33.360Z,8.93
2022-11-13T13:15:44.021Z,13.25
2022-11-13T13:18:34.594Z,11.73
2022-11-13T13:21:22.885Z,12.63
2022-11-13T13:24:30.803Z,8.48
2022-11-13T13:27:25.865Z,12.23
2022-11-13T13:30:22.683Z,13.75
2022-11-13T13:33:23.993Z,11.43
2022-11-13T13:36:23.822Z,8.73
2022-11-13T13:39:31.601Z,11.25
2022-11-13T13:42:38.558Z,10.40
2022-11-13T13:45:38.195Z,8.70
2022-11-13T13:48:44.517Z,12.00
2022-11-13T13:51:38.972Z,11.02
2022-11-13T13:54:31.114Z,11.45
2022-11-13T13:57:18.274Z,9.20
2022-11-13T14:00:11.012Z,9.75
2022-11-13T14:02:57.877Z,9.65
2022-11-13T14:05:45.037Z,8.63
2022-11-13T14:08:32.196Z,9.30
2022-11-13T14:11:26.745Z,10.10
2022-11-13T14:14:20.438Z,9.85
2022-11-13T14:17:07.327Z,9.68
2022-11-13T14:19:55.976Z,11.05
2022-11-13T14:22:45.548Z,10.63
2022-11-13T14:25:32.968Z,15.07
2022-11-13T14:28:24.232Z,9.95
2022-11-13T14:31:14.640Z,9.27
2022-11-13T14:34:09.038Z,12.60
2022-11-13T14:36:56.327Z,11.65
2022-11-13T14:39:48.435Z,10.55
2022-11-13T14:42:39.056Z,10.25
2022-11-13T14:45:29.744Z,8.90
2022-11-13T14:48:22.400Z,8.80
2022-11-13T14:51:25.196Z,10.82
2022-11-13T14:55:00.124Z,9.68
2022-11-13T14:57:49.846Z,10.93
2022-11-13T15:00:40.022Z,10.65
2022-11-13T15:03:28.915Z,13.27
2022-11-13T15:06:18.386Z,11.57
2022-11-13T15:09:07.653Z,9.38
2022-11-13T15:11:55.239Z,8.63
2022-11-13T15:14:43.457Z,11.70
2022-11-13T15:17:33.543Z,9.77
2022-11-13T15:20:25.368Z,9.07
2022-11-13T15:23:16.968Z,11.05
2022-11-13T15:26:04.152Z,9.90
2022-11-13T15:28:51.334Z,10.60
2022-11-13T15:31:42.495Z,11.20
2022-11-13T15:34:32.514Z,10.30
2022-11-13T15:37:27.275Z,9.77
2022-11-13T15:40:15.188Z,9.93
2022-11-13T15:43:03.173Z,8.57
2022-11-13T15:45:50.610Z,10.80
2022-11-13T15:48:37.846Z,9.63
2022-11-13T15:51:34.526Z,9.52
2022-11-13T15:54:27.360Z,8.73
2022-11-13T15:57:21.537Z,9.82
2022-11-13T16:00:16.736Z,9.52
2022-11-13T16:03:10.527Z,9.90
2022-11-13T16:05:58.865Z,11.93
2022-11-13T16:08:47.243Z,13.52
2022-11-13T16:11:35.881Z,13.85
2022-11-13T16:14:25.009Z,17.55
2022-11-13T16:17:14.735Z,14.68
2022-11-13T16:20:01.759Z,12.98
2022-11-13T16:22:48.873Z,13.02
2022-11-13T16:25:37.756Z,11.90
2022-11-13T16:28:25.158Z,14.35
2022-11-13T16:31:12.361Z,12.50
2022-11-13T16:33:59.624Z,12.20
2022-11-13T16:36:47.348Z,140.73
2022-11-13T16:39:34.283Z,102.60
2022-11-13T16:42:24.984Z,82.55
2022-11-13T16:45:18.993Z,77.95
2022-11-13T16:48:08.056Z,162.75
2022-11-13T16:50:55.864Z,579.40
2022-11-13T16:53:43.798Z,699.40
2022-11-13T16:56:31.323Z,468.42
2022-11-13T16:59:20.573Z,443.55
2022-11-13T17:02:16.089Z,423.90
2022-11-13T17:05:03.702Z,401.58
2022-11-13T17:07:52.095Z,367.17
2022-11-13T17:10:39.952Z,337.33
2022-11-13T17:13:28.672Z,339.13
2022-11-13T17:16:17.289Z,346.88
2022-11-13T17:19:04.292Z,304.15
2022-11-13T17:21:51.436Z,404.77
2022-11-13T17:24:38.740Z,1078.32
2022-11-13T17:27:25.901Z,333.85
2022-11-13T17:30:14.854Z,250.88
2022-11-13T17:33:03.637Z,178.55
2022-11-13T17:35:55.996Z,110.07
2022-11-13T17:38:43.083Z,106.60
2022-11-13T17:41:30.025Z,93.32
2022-11-13T17:44:17.016Z,82.22
2022-11-13T17:47:04.101Z,70.60
2022-11-13T17:49:52.623Z,72.43
2022-11-13T17:52:39.424Z,58.65
2022-11-13T17:55:27.071Z,62.35
2022-11-13T17:58:20.571Z,59.40
2022-11-13T18:01:10.020Z,51.47
2022-11-13T18:03:57.457Z,43.47
2022-11-13T18:06:46.039Z,53.85
2022-11-13T18:09:32.663Z,44.40
2022-11-13T18:12:20.059Z,46.33
2022-11-13T18:15:09.854Z,51.92
2022-11-13T18:17:56.838Z,39.90
2022-11-13T18:20:43.833Z,47.55
2022-11-13T18:23:32.340Z,47.60
2022-11-13T18:26:20.608Z,44.65
2022-11-13T18:29:07.953Z,46.03
2022-11-13T18:31:55.646Z,46.50
2022-11-13T18:47:23.819Z,40.63
2022-11-13T18:50:11.067Z,40.88
2022-11-13T18:52:58.079Z,36.13
2022-11-13T18:55:45.020Z,34.22
2022-11-13T18:58:32.270Z,33.97
2022-11-13T19:01:22.924Z,39.00
2022-11-13T19:04:24.123Z,36.97
2022-11-13T19:07:12.618Z,39.10
2022-11-13T19:09:59.603Z,34.67
2022-11-13T19:12:46.616Z,36.10
2022-11-13T19:15:36.200Z,40.00
2022-11-13T19:18:23.449Z,39.05
2022-11-13T19:21:14.174Z,33.35
2022-11-13T19:24:02.513Z,33.83
2022-11-13T19:26:51.819Z,36.05
2022-11-13T19:29:39.938Z,31.33
2022-11-13T19:32:27.404Z,32.88
2022-11-13T19:35:14.955Z,31.67
2022-11-13T19:38:03.381Z,27.50
2022-11-13T19:40:53.024Z,27.90
2022-11-13T19:43:42.400Z,29.40
2022-11-13T19:46:31.962Z,26.58
2022-11-13T19:49:19.182Z,28.30
2022-11-13T19:52:06.697Z,26.83
2022-11-13T19:54:54.877Z,27.55
2022-11-13T19:57:46.102Z,26.73
2022-11-13T20:00:33.107Z,26.55
2022-11-13T20:03:20.170Z,33.40
2022-11-13T20:06:08.950Z,25.65
2022-11-13T20:08:55.792Z,23.60
2022-11-13T20:11:45.156Z,20.17
2022-11-13T20:14:37.907Z,25.40
2022-11-13T20:17:25.306Z,26.10
2022-11-13T20:20:13.134Z,26.20
2022-11-13T20:23:00.229Z,24.80
2022-11-13T20:25:54.133Z,23.83
2022-11-13T20:28:42.519Z,25.15
2022-11-13T20:31:29.975Z,21.27
2022-11-13T20:34:17.227Z,25.23
2022-11-13T20:37:04.603Z,23.45
2022-11-13T20:39:52.029Z,22.45
2022-11-13T20:42:39.267Z,25.58
2022-11-13T20:45:27.825Z,22.65
2022-11-13T20:48:15.030Z,22.70
2022-11-13T20:51:08.630Z,23.20
2022-11-13T20:53:56.579Z,22.45
2022-11-13T20:56:43.404Z,24.65
2022-11-13T20:59:30.858Z,25.70
2022-11-13T21:02:19.231Z,23.08
2022-11-13T21:05:07.565Z,26.05
2022-11-13T21:07:54.784Z,23.83
2022-11-13T21:10:41.509Z,23.02
2022-11-13T21:13:28.858Z,22.17
2022-11-13T21:16:16.975Z,21.00
2022-11-13T21:19:05.707Z,24.15
2022-11-13T21:21:53.204Z,24.83
2022-11-13T21:24:40.307Z,22.65
2022-11-13T21:27:27.070Z,19.73
2022-11-13T21:30:15.260Z,24.08
2022-11-13T21:33:02.801Z,24.75
2022-11-13T21:35:51.221Z,26.00
2022-11-13T21:38:38.622Z,24.13
2022-11-13T21:41:26.833Z,25.67
2022-11-13T21:44:13.817Z,24.10
2022-11-13T21:47:00.719Z,25.85
2022-11-13T21:49:47.651Z,26.52
2022-11-13T21:52:36.472Z,39.25
2022-11-13T21:55:23.661Z,33.97
2022-11-13T21:58:10.642Z,32.03
2022-11-13T22:00:57.548Z,27.45
2022-11-13T22:03:44.701Z,20.58
2022-11-13T22:06:36.014Z,28.60
2022-11-13T22:09:26.378Z,25.75
2022-11-13T22:12:13.210Z,26.45
2022-11-13T22:15:00.359Z,24.33
2022-11-13T22:17:47.465Z,23.77
2022-11-13T22:20:34.626Z,27.77
2022-11-13T22:23:22.816Z,27.42
2022-11-13T22:26:14.001Z,23.75
2022-11-13T22:29:02.010Z,26.38
2022-11-13T22:31:49.163Z,20.27
2022-11-13T22:34:36.312Z,22.67
2022-11-13T22:37:23.320Z,26.02
2022-11-13T22:40:12.158Z,23.17
2022-11-13T22:43:00.434Z,21.17
2022-11-13T22:45:47.266Z,23.25
2022-11-13T22:48:36.542Z,24.85
2022-11-13T22:51:26.011Z,19.90
2022-11-13T22:54:14.904Z,23.08
2022-11-13T22:57:04.139Z,22.98
2022-11-13T22:59:52.864Z,21.63
2022-11-13T23:02:45.969Z,21.25
2022-11-13T23:05:36.802Z,20.65
2022-11-13T23:08:23.843Z,21.95
2022-11-13T23:11:15.118Z,19.98
2022-11-13T23:14:04.163Z,19.27
2022-11-13T23:16:52.792Z,22.55
2022-11-13T23:20:11.864Z,18.50
2022-11-13T23:26:17.233Z,20.35
2022-11-13T23:29:04.307Z,18.48
2022-11-13T23:31:53.479Z,19.45
2022-11-13T23:34:58.802Z,20.02
2022-11-13T23:37:47.551Z,20.98
2022-11-13T23:40:37.279Z,17.75
2022-11-13T23:43:47.361Z,19.58
2022-11-13T23:46:32.591Z,17.45
2022-11-13T23:49:21.536Z,20.02
2022-11-13T23:52:08.910Z,16.98
2022-11-13T23:54:56.235Z,19.60
2022-11-13T23:57:43.371Z,19.83
